Time;durP1;ratioP1;P1;durP2;ratioP2;P2;SDS_P1;SDS_P2;PMS_P1;PMS_P2;Temp;Humidity;BMP_temperature;BMP_pressure;BME280_temperature;BME280_humidity;BME280_pressure;Samples;Min_cycle;Max_cycle;Signal;HPM_P1;HPM_P2
2023/01/07 00:01:42;;;;;;;5.58;2.87;;;;;;;-5.89;67.20;101290.13;1708828;83;21093;-51
2023/01/07 00:04:13;;;;;;;8.63;2.30;;;;;;;-5.94;67.06;101290.81;1588710;90;21066;-51
2023/01/07 00:06:43;;;;;;;6.33;2.20;;;;;;;-5.96;66.81;101291.34;1568651;90;21019;-51
2023/01/07 00:09:15;;;;;;;7.17;2.60;;;;;;;-6.03;66.72;101292.09;1588824;90;21504;-51
2023/01/07 00:11:45;;;;;;;6.12;2.47;;;;;;;-6.05;66.72;101293.97;1568739;90;21174;-51
2023/01/07 00:14:14;;;;;;;8.08;3.12;;;;;;;-6.01;66.80;101285.36;1588832;90;21054;-51
2023/01/07 00:16:43;;;;;;;7.08;3.20;;;;;;;-5.96;66.71;101287.34;1589057;90;21072;-52
2023/01/07 00:19:14;;;;;;;6.87;2.85;;;;;;;-5.96;66.72;101290.02;1537894;93;21485;-52
2023/01/07 00:21:46;;;;;;;7.22;2.70;;;;;;;-5.96;67.00;101294.02;1556793;89;21099;-51
2023/01/07 00:24:15;;;;;;;6.12;2.90;;;;;;;-5.93;66.98;101296.54;1613933;89;21098;-50
2023/01/07 00:26:46;;;;;;;6.25;2.62;;;;;;;-5.90;66.85;101303.07;1593803;89;21103;-51
2023/01/07 00:29:17;;;;;;;7.72;2.60;;;;;;;-5.94;66.79;101294.81;1614366;89;21054;-50
2023/01/07 00:31:46;;;;;;;6.70;2.72;;;;;;;-6.02;66.59;101304.97;1614412;89;21095;-51
2023/01/07 00:34:15;;;;;;;6.92;2.60;;;;;;;-6.13;66.84;101307.66;1614415;89;21015;-50
2023/01/07 00:36:46;;;;;;;7.55;2.67;;;;;;;-6.17;66.89;101314.53;1627091;86;21107;-52
2023/01/07 00:39:18;;;;;;;10.30;3.02;;;;;;;-6.21;67.21;101316.47;1730881;82;21006;-50
2023/01/07 00:44:36;;;;;;;6.30;2.72;;;;;;;-6.17;67.22;101316.73;1707261;84;21414;-50
2023/01/07 00:47:05;;;;;;;5.80;2.50;;;;;;;-6.22;67.13;101316.08;1683190;84;21041;-51
2023/01/07 00:49:34;;;;;;;6.05;3.02;;;;;;;-6.19;67.21;101326.61;1614218;89;21044;-51
2023/01/07 00:52:04;;;;;;;4.95;2.80;;;;;;;-6.14;67.22;101328.59;1614311;89;21063;-50
2023/01/07 00:54:33;;;;;;;6.33;2.58;;;;;;;-6.09;66.96;101323.05;1614098;89;21035;-51
2023/01/07 00:57:02;;;;;;;6.20;2.80;;;;;;;-6.09;66.85;101326.59;1614356;89;21101;-51
2023/01/07 00:59:32;;;;;;;6.67;3.10;;;;;;;-6.07;66.66;101330.52;1614166;89;21486;-51
2023/01/07 01:02:01;;;;;;;6.97;2.92;;;;;;;-6.06;66.67;101333.59;1601441;88;21108;-50
2023/01/07 01:04:30;;;;;;;5.42;2.80;;;;;;;-6.05;66.65;101330.45;1616433;88;21475;-50
2023/01/07 01:07:00;;;;;;;6.57;2.87;;;;;;;-6.05;66.31;101333.98;1627039;86;21087;-50
2023/01/07 01:09:30;;;;;;;8.35;2.77;;;;;;;-6.10;66.26;101334.20;1709738;83;21017;-51
2023/01/07 01:11:58;;;;;;;5.78;2.47;;;;;;;-6.07;66.28;101338.52;1709237;83;21018;-50
2023/01/07 01:14:27;;;;;;;4.67;2.47;;;;;;;-6.05;66.54;101337.12;1709611;84;21422;-49
2023/01/07 01:16:56;;;;;;;6.67;2.92;;;;;;;-6.08;66.32;101326.13;1709613;83;21473;-50
2023/01/07 01:19:25;;;;;;;6.20;2.55;;;;;;;-6.14;66.09;101328.59;1709829;83;21065;-50
2023/01/07 01:21:55;;;;;;;7.65;2.50;;;;;;;-6.17;66.09;101332.73;1709480;83;21045;-51
2023/01/07 01:24:24;;;;;;;7.10;2.77;;;;;;;-6.16;66.19;101325.14;1709576;84;21052;-50
2023/01/07 01:26:53;;;;;;;6.08;2.80;;;;;;;-6.20;66.12;101326.67;1709406;84;21053;-51
2023/01/07 01:29:22;;;;;;;7.17;2.72;;;;;;;-6.28;66.41;101327.02;1709799;83;21064;-51
2023/01/07 01:31:52;;;;;;;6.75;2.72;;;;;;;-6.26;66.43;101330.95;1709514;84;21017;-49
2023/01/07 01:34:22;;;;;;;5.53;2.52;;;;;;;-6.24;66.17;101329.95;1709782;83;21061;-51
2023/01/07 01:36:51;;;;;;;5.15;2.52;;;;;;;-6.26;66.09;101333.14;1709684;83;21009;-50
2023/01/07 01:39:20;;;;;;;7.20;2.87;;;;;;;-6.26;66.21;101319.81;1709777;84;21226;-50
2023/01/07 01:41:49;;;;;;;7.40;2.70;;;;;;;-6.24;66.35;101323.28;1709470;83;21492;-51
2023/01/07 01:44:35;;;;;;;6.22;2.98;;;;;;;-6.27;66.37;101328.75;1709456;84;21053;-51
2023/01/07 01:47:09;;;;;;;;;;;;;;;-6.31;66.55;101326.28;1712033;84;21523;-50
2023/01/07 01:49:40;;;;;;;8.25;2.90;;;;;;;-6.33;66.32;101325.02;1709439;83;20217;-51
2023/01/07 01:52:13;;;;;;;7.58;2.85;;;;;;;-6.28;66.35;101329.69;1709640;84;21006;-50
2023/01/07 01:54:47;;;;;;;5.92;2.75;;;;;;;-6.27;66.28;101328.75;1709520;83;21033;-51
2023/01/07 01:57:17;;;;;;;8.58;2.52;;;;;;;-6.19;66.33;101329.73;1709556;84;21001;-51
2023/01/07 01:59:50;;;;;;;7.05;2.92;;;;;;;-6.12;66.31;101331.20;1709437;84;21030;-50
2023/01/07 02:02:24;;;;;;;7.80;2.90;;;;;;;-6.07;66.25;101323.86;1715821;83;21005;-50
2023/01/07 02:04:55;;;;;;;6.33;2.52;;;;;;;-6.04;66.02;101321.05;1727017;83;21068;-51
2023/01/07 02:07:25;;;;;;;6.20;2.92;;;;;;;-6.05;65.86;101319.31;1727036;82;21441;-50
2023/01/07 02:10:02;;;;;;;7.65;3.80;;;;;;;-6.08;65.90;101306.12;1727027;83;20981;-51
2023/01/07 02:13:09;;;;;;;6.90;2.80;;;;;;;-6.10;65.91;101310.66;1726756;82;21001;-51
2023/01/07 02:16:03;;;;;;;5.53;2.67;;;;;;;-6.12;66.29;101309.86;1727029;82;21447;-50
2023/01/07 02:18:43;;;;;;;5.75;2.75;;;;;;;-6.17;66.04;101310.53;1726752;83;21491;-51
2023/01/07 02:21:49;;;;;;;6.20;2.70;;;;;;;-6.20;66.02;101314.20;1727164;83;21080;-51
2023/01/07 02:25:01;;;;;;;7.10;2.98;;;;;;;-6.20;65.93;101308.88;1726919;83;21005;-50
2023/01/07 02:28:14;;;;;;;8.75;3.15;;;;;;;-6.17;66.04;101315.40;1727060;83;21424;-50
2023/01/07 02:31:13;;;;;;;7.12;2.90;;;;;;;-6.13;66.36;101318.33;1727015;83;21025;-52
2023/01/07 02:33:51;;;;;;;;;;;;;;;-6.16;66.36;101317.13;1729791;83;20965;-51
2023/01/07 02:37:14;;;;;;;7.20;2.85;;;;;;;-6.19;66.20;101330.61;1727098;82;20152;-51
2023/01/07 02:39:55;;;;;;;5.47;2.60;;;;;;;-6.21;65.93;101328.47;1726918;83;21484;-51
2023/01/07 02:42:51;;;;;;;5.95;2.45;;;;;;;-6.22;65.46;101327.21;1726903;83;21048;-51
2023/01/07 02:45:47;;;;;;;4.80;2.12;;;;;;;-6.24;65.47;101324.61;1720997;83;21020;-51
2023/01/07 02:48:18;;;;;;;8.45;2.60;;;;;;;-6.22;65.52;101328.08;1726914;82;21460;-50
2023/01/07 02:50:47;;;;;;;6.20;2.70;;;;;;;-6.20;64.99;101328.01;1727153;83;20997;-51
2023/01/07 02:53:18;;;;;;;7.47;2.77;;;;;;;-6.27;65.00;101334.55;1727212;82;21005;-51
2023/01/07 02:56:20;;;;;;;7.08;2.62;;;;;;;-6.29;65.14;101335.09;1708610;83;20969;-51
2023/01/07 02:59:17;;;;;;;8.78;2.70;;;;;;;-6.27;65.14;101335.41;1708657;83;21021;-50
2023/01/07 03:02:07;;;;;;;5.03;2.52;;;;;;;-6.29;65.16;101333.75;1726903;82;21004;-50
2023/01/07 03:05:08;;;;;;;5.20;2.55;;;;;;;-6.27;65.09;101339.41;1726915;83;20997;-50
2023/01/07 03:08:23;;;;;;;7.25;3.02;;;;;;;-6.22;65.37;101341.87;1671719;83;21114;-50
2023/01/07 03:11:07;;;;;;;6.80;2.80;;;;;;;-6.21;65.29;101337.81;1726963;82;21454;-50
2023/01/07 03:13:44;;;;;;;6.30;2.87;;;;;;;-6.28;65.51;101337.68;1690555;84;20970;-51
2023/01/07 03:16:27;;;;;;;6.10;2.77;;;;;;;-6.31;65.52;101334.28;1660671;86;21075;-49
2023/01/07 03:19:05;;;;;;;4.65;2.67;;;;;;;-6.28;65.77;101340.35;1634663;86;21503;-51
2023/01/07 03:21:35;;;;;;;7.53;2.90;;;;;;;-6.32;65.77;101337.42;1685827;84;20970;-50
2023/01/07 03:24:05;;;;;;;6.15;2.62;;;;;;;-6.31;65.62;101337.82;1689932;85;21063;-50
2023/01/07 03:26:41;;;;;;;6.78;2.85;;;;;;;-6.31;65.64;101339.62;1689939;84;21018;-50
2023/01/07 03:29:12;;;;;;;7.22;3.10;;;;;;;-6.31;65.43;101335.16;1690003;84;21482;-51
2023/01/07 03:32:05;;;;;;;7.53;2.72;;;;;;;-6.30;65.34;101328.02;1689720;85;21073;-51
2023/01/07 03:34:36;;;;;;;6.08;2.70;;;;;;;-6.28;65.29;101336.81;1673213;84;21069;-51
2023/01/07 03:37:18;;;;;;;7.47;2.45;;;;;;;-6.30;65.19;101338.22;1672484;85;21070;-52
2023/01/07 03:39:49;;;;;;;7.03;2.87;;;;;;;-6.40;65.32;101336.89;1689678;84;21462;-52
2023/01/07 03:42:40;;;;;;;5.00;2.60;;;;;;;-6.45;65.29;101341.09;1689834;85;21090;-50
2023/01/07 03:45:23;;;;;;;6.60;3.02;;;;;;;-6.46;65.38;101345.16;1709844;83;21010;-51
2023/01/07 03:47:55;;;;;;;6.80;2.70;;;;;;;-6.41;65.74;101336.02;1689964;85;21061;-51
2023/01/07 03:50:27;;;;;;;7.58;3.15;;;;;;;-6.36;65.36;101343.82;1651254;85;21039;-50
2023/01/07 03:52:56;;;;;;;7.70;3.25;;;;;;;-6.29;65.30;101337.28;1689774;85;21018;-50
2023/01/07 03:55:27;;;;;;;8.65;3.50;;;;;;;-6.25;65.11;101336.22;1709723;84;21461;-51
2023/01/07 03:57:57;;;;;;;8.68;3.60;;;;;;;-6.21;64.82;101344.95;1709878;84;21405;-51
2023/01/07 04:00:27;;;;;;;8.93;3.80;;;;;;;-6.27;64.90;101344.75;1709544;84;21005;-50
2023/01/07 04:03:01;;;;;;;10.38;3.33;;;;;;;-6.33;65.16;101343.69;1708783;84;21025;-51
2023/01/07 04:05:32;;;;;;;10.53;3.50;;;;;;;-6.36;65.66;101355.82;1707265;84;20978;-50
2023/01/07 04:08:02;;;;;;;6.83;3.10;;;;;;;-6.38;65.77;101357.69;1652985;86;21035;-51
2023/01/07 04:10:33;;;;;;;10.13;3.65;;;;;;;-6.37;65.81;101350.55;1652995;87;21071;-51
2023/01/07 04:13:03;;;;;;;7.95;3.62;;;;;;;-6.38;65.87;101359.02;1653111;86;21027;-51
2023/01/07 04:15:32;;;;;;;7.65;3.45;;;;;;;-6.39;65.99;101354.62;1652966;86;21089;-51
2023/01/07 04:18:01;;;;;;;7.45;3.33;;;;;;;-6.39;66.27;101357.28;1653141;86;21090;-51
2023/01/07 04:20:31;;;;;;;8.35;3.45;;;;;;;-6.37;66.33;101348.75;1652793;86;21121;-52
2023/01/07 04:23:00;;;;;;;7.37;3.50;;;;;;;-6.39;66.14;101353.28;1653043;86;21078;-51
2023/01/07 04:25:31;;;;;;;11.95;3.35;;;;;;;-6.35;66.07;101353.55;1663966;84;21013;-51
2023/01/07 04:28:01;;;;;;;6.08;2.95;;;;;;;-6.31;66.18;101355.15;1685476;84;21077;-51
2023/01/07 04:30:32;;;;;;;9.33;3.70;;;;;;;-6.28;66.07;101354.15;1690206;84;21039;-50
2023/01/07 04:33:03;;;;;;;8.90;3.00;;;;;;;-6.26;65.90;101353.15;1729725;82;20997;-50
2023/01/07 04:35:32;;;;;;;8.60;3.02;;;;;;;-6.23;65.60;101357.48;1729675;83;21075;-51
2023/01/07 04:38:02;;;;;;;8.13;3.17;;;;;;;-6.19;65.45;101361.28;1729776;83;21413;-51
2023/01/07 04:40:31;;;;;;;8.43;3.50;;;;;;;-6.22;64.82;101355.22;1730013;82;21036;-49
2023/01/07 04:43:02;;;;;;;8.68;3.35;;;;;;;-6.34;64.96;101358.42;1730031;82;21020;-49
2023/01/07 04:45:31;;;;;;;7.92;3.60;;;;;;;-6.38;65.09;101352.35;1729964;82;21048;-50
2023/01/07 04:48:01;;;;;;;6.90;3.33;;;;;;;-6.37;65.13;101364.75;1730122;83;21023;-50
2023/01/07 04:50:31;;;;;;;10.88;3.98;;;;;;;-6.35;65.62;101364.69;1729957;82;21004;-49
2023/01/07 04:53:02;;;;;;;9.15;3.60;;;;;;;-6.42;65.64;101368.08;1729988;83;21506;-51
2023/01/07 04:55:33;;;;;;;6.90;3.67;;;;;;;-6.51;65.78;101367.98;1729812;83;21104;-50
2023/01/07 04:58:03;;;;;;;8.78;3.37;;;;;;;-6.53;65.88;101367.18;1729873;82;21591;-51
2023/01/07 05:00:33;;;;;;;8.60;3.55;;;;;;;-6.48;65.82;101365.68;1729910;83;21457;-51
2023/01/07 05:03:04;;;;;;;7.85;3.37;;;;;;;-6.44;65.25;101364.16;1729166;83;21013;-49
2023/01/07 05:05:33;;;;;;;7.37;3.17;;;;;;;-6.41;65.30;101372.48;1726940;83;21076;-50
2023/01/07 05:08:04;;;;;;;8.60;3.45;;;;;;;-6.35;65.39;101365.55;1726758;83;20985;-49
2023/01/07 05:10:35;;;;;;;9.48;3.90;;;;;;;-6.32;65.26;101369.88;1726898;81;21017;-49
2023/01/07 05:13:06;;;;;;;9.18;3.60;;;;;;;-6.32;65.11;101362.75;1727158;83;21028;-51
2023/01/07 05:15:35;;;;;;;8.13;3.60;;;;;;;-6.31;64.97;101363.62;1727229;83;20992;-50
2023/01/07 05:18:06;;;;;;;7.60;3.22;;;;;;;-6.34;65.35;101365.95;1708488;83;21056;-51
2023/01/07 05:20:35;;;;;;;8.03;3.80;;;;;;;-6.38;65.59;101370.15;1727160;83;21485;-50
2023/01/07 05:23:04;;;;;;;6.47;3.08;;;;;;;-6.38;65.68;101375.02;1726931;83;21020;-51
2023/01/07 05:25:34;;;;;;;10.03;4.03;;;;;;;-6.36;65.58;101387.81;1726827;83;21472;-50
2023/01/07 05:28:03;;;;;;;7.72;3.30;;;;;;;-6.37;65.54;101383.41;1727171;83;20973;-51
2023/01/07 05:30:34;;;;;;;9.60;3.12;;;;;;;-6.36;65.32;101393.14;1708195;83;21004;-51
2023/01/07 05:33:06;;;;;;;9.20;3.50;;;;;;;-6.38;65.22;101395.02;1727015;83;21472;-51
2023/01/07 05:35:36;;;;;;;8.15;3.70;;;;;;;-6.46;64.96;101390.01;1685975;83;21401;-49
2023/01/07 05:38:05;;;;;;;7.80;3.40;;;;;;;-6.46;65.08;101398.47;1726865;83;21009;-51
2023/01/07 05:40:35;;;;;;;10.28;3.77;;;;;;;-6.42;65.09;101408.08;1727141;83;21004;-50
2023/01/07 05:43:04;;;;;;;7.72;3.92;;;;;;;-6.38;65.22;101403.48;1726912;83;21029;-51
2023/01/07 05:45:34;;;;;;;9.80;3.87;;;;;;;-6.33;65.37;101406.81;1727029;83;21001;-51
2023/01/07 05:48:03;;;;;;;9.88;4.15;;;;;;;-6.25;65.17;101406.88;1726997;83;21004;-50
2023/01/07 05:50:32;;;;;;;16.40;4.72;;;;;;;-6.28;64.83;101410.15;1727400;83;21020;-50
2023/01/07 05:53:04;;;;;;;10.48;4.70;;;;;;;-6.33;64.89;101417.02;1726936;83;21028;-51
2023/01/07 05:55:34;;;;;;;11.22;4.37;;;;;;;-6.33;65.02;101421.02;1727085;82;20996;-50
2023/01/07 05:58:04;;;;;;;9.30;4.33;;;;;;;-6.33;64.75;101420.14;1726737;83;21000;-51
2023/01/07 06:00:35;;;;;;;13.38;5.12;;;;;;;-6.33;65.03;101417.02;1727110;83;20977;-51
2023/01/07 06:03:04;;;;;;;11.75;4.50;;;;;;;-6.29;65.09;101425.75;1724927;81;20985;-49
2023/01/07 06:05:35;;;;;;;14.35;4.97;;;;;;;-6.27;65.08;101430.08;1650391;87;21507;-50
2023/01/07 06:08:05;;;;;;;10.32;4.12;;;;;;;-6.24;64.90;101435.28;1650433;86;21083;-49
2023/01/07 06:10:34;;;;;;;10.58;4.55;;;;;;;-6.19;64.74;101435.95;1650520;87;21042;-50
2023/01/07 06:13:03;;;;;;;10.50;4.62;;;;;;;-6.15;64.70;101444.22;1650482;86;21075;-51
2023/01/07 06:15:32;;;;;;;10.10;4.55;;;;;;;-6.10;64.38;101444.89;1650611;87;21091;-50
2023/01/07 06:18:04;;;;;;;13.88;5.15;;;;;;;-6.08;64.54;101443.03;1650789;87;21071;-50
2023/01/07 06:20:33;;;;;;;11.00;4.70;;;;;;;-6.10;64.45;101441.36;1650611;86;21127;-49
2023/01/07 06:23:04;;;;;;;11.45;4.45;;;;;;;-6.15;64.61;101447.36;1662259;84;21037;-49
2023/01/07 06:25:33;;;;;;;8.98;3.98;;;;;;;-6.23;64.61;101449.02;1707045;84;21610;-51
2023/01/07 06:28:03;;;;;;;12.60;4.50;;;;;;;-6.33;64.56;101447.68;1706901;84;21021;-50
2023/01/07 06:30:32;;;;;;;10.60;3.98;;;;;;;-6.50;64.63;101449.72;1682918;84;21064;-50
2023/01/07 06:33:04;;;;;;;13.25;4.65;;;;;;;-6.61;65.04;101456.39;1707042;84;21041;-51
2023/01/07 06:35:33;;;;;;;12.80;4.45;;;;;;;-6.60;65.41;101458.13;1707286;84;20978;-52
2023/01/07 06:38:01;;;;;;;10.13;4.12;;;;;;;-6.57;65.61;101459.33;1707133;84;21045;-49
2023/01/07 06:40:33;;;;;;;10.70;4.60;;;;;;;-6.54;65.59;101460.54;1707150;84;20978;-50
2023/01/07 06:43:02;;;;;;;13.22;4.40;;;;;;;-6.56;65.60;101466.39;1683416;84;21009;-50
2023/01/07 06:45:36;;;;;;;11.50;4.60;;;;;;;-6.58;65.76;101472.25;1707105;84;21049;-52
2023/01/07 06:48:05;;;;;;;12.00;4.30;;;;;;;-6.64;65.91;101475.17;1707140;84;21442;-50
2023/01/07 06:50:34;;;;;;;14.83;4.65;;;;;;;-6.66;66.23;101481.03;1706944;84;21057;-49
2023/01/07 06:53:04;;;;;;;9.90;4.20;;;;;;;-6.63;66.56;101487.56;1706812;84;21010;-52
2023/01/07 06:55:33;;;;;;;10.60;4.28;;;;;;;-6.60;66.46;101493.64;1707394;84;21407;-51
2023/01/07 06:58:02;;;;;;;11.75;4.58;;;;;;;-6.64;65.91;101497.36;1682773;84;21022;-50
2023/01/07 07:00:32;;;;;;;11.20;4.20;;;;;;;-6.68;66.02;101493.55;1707047;84;21049;-49
2023/01/07 07:03:04;;;;;;;12.00;4.75;;;;;;;-6.72;66.04;101495.47;1650364;87;21043;-51
2023/01/07 07:05:35;;;;;;;11.85;4.55;;;;;;;-6.73;66.07;101499.93;1642202;87;21038;-51
2023/01/07 07:08:05;;;;;;;11.18;4.35;;;;;;;-6.76;66.21;101500.05;1642437;87;21041;-50
2023/01/07 07:10:35;;;;;;;11.75;4.72;;;;;;;-6.77;66.53;101502.31;1585961;90;21057;-50
2023/01/07 07:13:04;;;;;;;9.25;4.30;;;;;;;-6.73;66.82;101507.92;1590494;90;21653;-51
2023/01/07 07:15:33;;;;;;;8.53;4.08;;;;;;;-6.66;66.42;101516.54;1590581;90;21110;-50
2023/01/07 07:18:03;;;;;;;12.35;4.72;;;;;;;-6.64;66.15;101519.14;1590693;90;21065;-49
2023/01/07 07:20:32;;;;;;;11.05;4.83;;;;;;;-6.61;66.25;101518.56;1573292;87;21139;-51
2023/01/07 07:23:02;;;;;;;9.03;3.98;;;;;;;-6.55;66.05;101521.44;1642411;87;21049;-51
2023/01/07 07:25:32;;;;;;;12.18;5.00;;;;;;;-6.58;65.64;101533.09;1642468;87;21451;-51
2023/01/07 07:28:01;;;;;;;13.60;4.58;;;;;;;-6.62;65.31;101530.61;1653439;84;21069;-50
2023/01/07 07:30:30;;;;;;;13.60;4.53;;;;;;;-6.67;65.53;101532.13;1700766;84;21046;-51
2023/01/07 07:33:03;;;;;;;12.80;4.87;;;;;;;-6.63;65.78;101536.88;1664470;85;21140;-50
2023/01/07 07:35:33;;;;;;;10.58;4.28;;;;;;;-6.58;65.58;101540.22;1664762;86;21147;-50
2023/01/07 07:38:02;;;;;;;11.08;4.28;;;;;;;-6.62;65.53;101540.81;1678773;85;21063;-51
2023/01/07 07:40:32;;;;;;;11.05;4.65;;;;;;;-6.62;65.34;101548.80;1700688;84;21073;-50
2023/01/07 07:43:03;;;;;;;15.43;5.17;;;;;;;-6.61;65.26;101548.34;1701000;83;21013;-50
2023/01/07 07:45:34;;;;;;;12.40;4.78;;;;;;;-6.60;65.34;101542.08;1664597;85;21507;-50
2023/01/07 07:48:06;;;;;;;9.05;4.28;;;;;;;-6.57;65.43;101541.49;1664366;86;21024;-51
2023/01/07 07:50:36;;;;;;;10.80;4.30;;;;;;;-6.56;65.54;101545.03;1655675;85;21031;-51
2023/01/07 07:53:08;;;;;;;12.30;4.70;;;;;;;-6.56;65.01;101551.69;1700934;83;21445;-51
2023/01/07 07:55:38;;;;;;;12.18;4.95;;;;;;;-6.65;64.45;101542.73;1700950;84;21029;-51
2023/01/07 07:58:07;;;;;;;10.40;4.83;;;;;;;-6.64;64.75;101541.80;1675499;84;21109;-50
2023/01/07 08:00:37;;;;;;;13.22;5.10;;;;;;;-6.54;64.94;101549.83;1700964;84;21050;-51
2023/01/07 08:03:06;;;;;;;13.32;4.53;;;;;;;-6.42;64.75;101558.70;1700781;83;21121;-49
2023/01/07 08:05:43;;;;;;;14.33;5.62;;;;;;;-6.27;64.82;101555.42;1708370;83;21025;-51
2023/01/07 08:08:13;;;;;;;11.63;4.70;;;;;;;-6.12;64.44;101554.80;1709697;84;21029;-50
2023/01/07 08:10:42;;;;;;;9.93;4.42;;;;;;;-6.07;64.06;101564.80;1709668;84;21014;-51
2023/01/07 08:13:11;;;;;;;10.48;5.42;;;;;;;-6.07;63.58;101563.47;1709800;84;21045;-51
2023/01/07 08:15:42;;;;;;;13.13;5.40;;;;;;;-6.03;63.27;101564.67;1709682;83;21049;-49
2023/01/07 08:18:12;;;;;;;13.50;5.03;;;;;;;-6.01;63.18;101565.48;1709319;83;21100;-51
2023/01/07 08:20:42;;;;;;;12.60;4.70;;;;;;;-6.02;62.83;101561.08;1709755;83;21100;-50
2023/01/07 08:23:11;;;;;;;13.68;5.20;;;;;;;-5.99;62.81;101566.28;1709894;84;21060;-51
2023/01/07 08:25:41;;;;;;;11.65;4.95;;;;;;;-5.90;62.85;101569.44;1709710;84;21053;-50
2023/01/07 08:28:09;;;;;;;13.78;5.00;;;;;;;-5.87;62.44;101562.61;1709707;84;20997;-50
2023/01/07 08:30:41;;;;;;;12.65;5.30;;;;;;;-5.94;62.31;101571.83;1709469;84;21065;-50
2023/01/07 08:33:10;;;;;;;13.22;5.17;;;;;;;-5.94;62.32;101565.63;1685675;84;21099;-50
2023/01/07 08:35:40;;;;;;;11.12;4.78;;;;;;;-6.00;61.91;101568.55;1709603;83;21447;-51
2023/01/07 08:38:10;;;;;;;12.90;4.83;;;;;;;-6.02;62.07;101571.75;1709528;84;21002;-49
2023/01/07 08:40:43;;;;;;;12.37;5.08;;;;;;;-6.05;62.02;101573.21;1709699;83;21493;-51
2023/01/07 08:43:12;;;;;;;14.83;5.20;;;;;;;-6.08;62.00;101571.54;1709699;84;21061;-50
2023/01/07 08:45:42;;;;;;;11.73;5.30;;;;;;;-6.11;62.14;101563.66;1709817;83;21052;-51
2023/01/07 08:48:11;;;;;;;13.40;5.22;;;;;;;-6.12;62.50;101568.13;1672901;83;21041;-51
2023/01/07 08:50:40;;;;;;;16.25;5.37;;;;;;;-6.17;62.34;101566.58;1678352;83;21094;-51
2023/01/07 08:53:10;;;;;;;11.33;4.83;;;;;;;-6.25;62.83;101565.56;1709577;83;21058;-52
2023/01/07 08:55:41;;;;;;;10.23;5.00;;;;;;;-6.24;63.12;101563.30;1663313;86;21539;-50
2023/01/07 08:58:10;;;;;;;12.28;4.67;;;;;;;-6.15;63.03;101562.05;1608407;89;21542;-51
2023/01/07 09:00:40;;;;;;;10.85;4.50;;;;;;;-6.11;62.68;101554.33;1608250;89;21086;-50
2023/01/07 09:03:09;;;;;;;10.85;4.72;;;;;;;-6.09;62.51;101550.66;1608203;89;21069;-52
2023/01/07 09:05:39;;;;;;;12.75;4.65;;;;;;;-6.09;63.40;101550.66;1640214;86;21498;-50
2023/01/07 09:08:09;;;;;;;11.90;5.05;;;;;;;-5.95;63.88;101542.55;1663201;85;21098;-51
2023/01/07 09:10:38;;;;;;;11.93;4.25;;;;;;;-5.95;63.34;101545.22;1663529;86;21082;-51
2023/01/07 09:13:08;;;;;;;15.48;5.15;;;;;;;-5.97;62.98;101535.94;1675684;83;21247;-53
2023/01/07 09:15:38;;;;;;;11.33;5.00;;;;;;;-5.98;62.24;101532.00;1723440;83;20994;-52
2023/01/07 09:18:07;;;;;;;11.48;4.42;;;;;;;-6.00;62.20;101528.53;1723252;82;21492;-50
2023/01/07 09:20:37;;;;;;;15.50;4.42;;;;;;;-6.02;62.16;101527.73;1723253;82;21567;-50
2023/01/07 09:23:06;;;;;;;11.75;4.33;;;;;;;-5.96;62.23;101528.34;1698407;83;21076;-51
2023/01/07 09:25:35;;;;;;;16.15;4.87;;;;;;;-5.90;61.89;101535.22;1689269;85;21021;-51
2023/01/07 09:28:05;;;;;;;13.55;5.05;;;;;;;-5.93;61.71;101535.34;1689282;85;21056;-52
2023/01/07 09:30:36;;;;;;;12.58;4.72;;;;;;;-5.90;61.92;101536.08;1688973;85;21004;-51
2023/01/07 09:33:05;;;;;;;13.78;4.80;;;;;;;-5.88;61.60;101537.31;1688971;85;21041;-52
2023/01/07 09:35:35;;;;;;;12.47;5.12;;;;;;;-5.89;61.25;101536.45;1675083;84;21066;-52
2023/01/07 09:38:05;;;;;;;11.10;4.80;;;;;;;-5.97;61.32;101536.41;1696303;83;21047;-51
2023/01/07 09:40:40;;;;;;;12.65;5.28;;;;;;;-5.99;61.69;101541.81;1709011;83;21039;-51
2023/01/07 09:43:23;;;;;;;11.38;4.40;;;;;;;-6.00;61.50;101534.73;1679598;85;21078;-53
2023/01/07 09:45:57;;;;;;;13.77;5.33;;;;;;;-5.96;61.59;101544.34;1661155;86;21044;-51
2023/01/07 09:48:44;;;;;;;12.53;4.87;;;;;;;-5.87;61.44;101536.39;1694427;85;21729;-52
2023/01/07 09:51:25;;;;;;;11.73;4.60;;;;;;;-5.78;61.26;101541.36;1662936;86;21090;-52
2023/01/07 09:53:58;;;;;;;11.35;4.67;;;;;;;-5.77;60.83;101537.76;1708946;84;21058;-51
2023/01/07 09:56:33;;;;;;;12.18;5.12;;;;;;;-5.76;60.88;101539.03;1676753;85;21016;-51
2023/01/07 09:59:04;;;;;;;13.90;5.65;;;;;;;-5.70;61.08;101541.03;1580180;91;21245;-52
2023/01/07 10:01:39;;;;;;;12.78;4.83;;;;;;;-5.70;60.78;101537.89;1540942;91;21145;-51
2023/01/07 10:04:44;;;;;;;11.60;4.95;;;;;;;-5.74;60.79;101537.63;1532193;90;21525;-53
2023/01/07 10:07:40;;;;;;;13.13;5.05;;;;;;;-5.72;60.85;101539.77;1586105;90;21101;-50
2023/01/07 10:10:23;;;;;;;14.55;5.58;;;;;;;-5.64;60.79;101545.64;1603596;89;21053;-50
2023/01/07 10:13:07;;;;;;;12.50;4.55;;;;;;;-5.57;61.00;101540.89;1604646;89;21150;-49
2023/01/07 10:16:11;;;;;;;12.35;5.42;;;;;;;-5.59;60.58;101543.63;1604673;89;21034;-51
2023/01/07 10:19:01;;;;;;;12.40;5.70;;;;;;;-5.65;60.20;101541.23;1714359;84;21023;-54
2023/01/07 10:21:57;;;;;;;13.00;5.35;;;;;;;-5.72;60.44;101541.56;1714152;84;21742;-51
2023/01/07 10:24:30;;;;;;;13.62;5.33;;;;;;;-5.73;60.77;101546.50;1714020;84;21085;-51
2023/01/07 10:27:02;;;;;;;14.40;5.40;;;;;;;-5.79;60.98;101543.16;1714091;84;21031;-51
2023/01/07 10:29:49;;;;;;;12.45;5.62;;;;;;;-5.72;61.06;101550.91;1690296;84;21595;-50
2023/01/07 10:32:22;;;;;;;14.07;5.37;;;;;;;-5.66;61.05;101553.31;1690508;84;21147;-52
2023/01/07 10:34:54;;;;;;;15.88;6.00;;;;;;;-5.69;61.09;101550.30;1714187;83;21235;-51
2023/01/07 10:37:38;;;;;;;12.33;5.40;;;;;;;-5.71;61.27;101548.17;1690084;84;21031;-50
2023/01/07 10:40:43;;;;;;;17.50;5.72;;;;;;;-5.67;61.45;101551.11;1714216;84;21104;-51
2023/01/07 10:43:23;;;;;;;15.40;4.92;;;;;;;-5.69;61.26;101552.98;1682052;84;21019;-50
2023/01/07 10:46:16;;;;;;;12.37;5.05;;;;;;;-5.67;61.16;101550.24;1697494;84;21030;-52
2023/01/07 10:48:57;;;;;;;12.03;6.25;;;;;;;-5.72;60.82;101545.10;1699709;84;21058;-51
2023/01/07 10:51:54;;;;;;;17.75;5.47;;;;;;;-5.78;61.11;101550.70;1697411;84;21003;-51
2023/01/07 10:54:33;;;;;;;12.23;5.30;;;;;;;-5.74;60.73;101548.30;1699410;84;21022;-51
2023/01/07 10:57:07;;;;;;;15.80;5.50;;;;;;;-5.88;60.71;101546.66;1673944;84;21082;-52
2023/01/07 10:59:36;;;;;;;15.78;5.67;;;;;;;-5.93;61.02;101548.69;1695524;83;21118;-50
2023/01/07 11:05:04;;;;;;;13.10;5.10;;;;;;;-5.95;61.74;101553.22;1664348;84;21612;-51
2023/01/07 11:07:45;;;;;;;13.38;5.15;;;;;;;-5.93;61.98;101551.36;1616363;88;21115;-51
2023/01/07 11:10:23;;;;;;;14.68;5.50;;;;;;;-5.89;61.61;101555.63;1637763;87;21042;-53
2023/01/07 11:13:01;;;;;;;13.45;5.62;;;;;;;-5.90;61.50;101544.09;1633576;88;21764;-51
2023/01/07 11:15:53;;;;;;;14.50;5.42;;;;;;;-5.87;61.91;101540.39;1638360;87;21034;-50
2023/01/07 11:18:33;;;;;;;13.48;4.92;;;;;;;-5.87;61.80;101539.05;1633245;88;21190;-51
2023/01/07 11:21:02;;;;;;;12.03;5.30;;;;;;;-5.88;62.16;101547.52;1687081;85;21059;-50
2023/01/07 11:23:40;;;;;;;13.58;5.42;;;;;;;-5.84;62.23;101540.30;1687695;85;21524;-52
2023/01/07 11:26:25;;;;;;;11.97;5.33;;;;;;;-5.79;62.23;101532.48;1687753;85;21034;-51
2023/01/07 11:29:00;;;;;;;12.95;5.37;;;;;;;-5.80;61.94;101537.89;1659422;85;21074;-51
2023/01/07 11:31:53;;;;;;;13.15;5.08;;;;;;;-5.76;62.20;101538.16;1685192;85;21067;-51
2023/01/07 11:34:26;;;;;;;25.72;5.95;;;;;;;-5.68;62.01;101538.70;1661771;85;21082;-52
2023/01/07 11:36:55;;;;;;;10.38;5.15;;;;;;;-5.64;61.87;101545.64;1687496;85;21063;-50
2023/01/07 11:39:28;;;;;;;14.20;5.55;;;;;;;-5.62;61.44;101546.44;1687621;85;21098;-51
2023/01/07 11:45:28;;;;;;;13.85;5.65;;;;;;;-5.68;61.58;101547.17;1638897;87;21033;-51
2023/01/07 11:48:34;;;;;;;13.72;4.70;;;;;;;-5.63;61.75;101553.18;1659669;86;21044;-52
2023/01/07 11:51:09;;;;;;;12.70;5.30;;;;;;;-5.55;61.62;101558.59;1651922;86;21047;-52
2023/01/07 11:53:55;;;;;;;15.15;6.65;;;;;;;-5.43;61.46;101550.50;1674029;85;21075;-50
2023/01/07 11:56:29;;;;;;;12.10;5.28;;;;;;;-5.32;61.19;101552.70;1682883;83;21062;-52
2023/01/07 11:59:17;;;;;;;13.90;5.00;;;;;;;-5.26;60.70;101547.08;1705672;83;21065;-50
2023/01/07 12:01:50;;;;;;;14.80;4.53;;;;;;;-5.23;60.41;101549.61;1733069;83;21053;-51
2023/01/07 12:04:31;;;;;;;15.75;6.25;;;;;;;-5.22;60.41;101553.55;1709038;83;21090;-51